createdAt,value
2022-08-31T00:01:35.975Z,100.00
2022-08-31T00:04:27.215Z,100.00
2022-08-31T00:07:15.756Z,100.00
2022-08-31T00:10:13.952Z,100.00
2022-08-31T00:13:03.034Z,100.00
2022-08-31T00:15:52.779Z,100.00
2022-08-31T00:18:41.355Z,100.00
2022-08-31T00:21:31.479Z,100.00
2022-08-31T00:24:20.004Z,100.00
2022-08-31T00:27:08.548Z,100.00
2022-08-31T00:29:57.069Z,100.00
2022-08-31T00:32:45.653Z,100.00
2022-08-31T00:35:37.649Z,100.00
2022-08-31T00:38:27.482Z,100.00
2022-08-31T00:41:16.928Z,100.00
2022-08-31T00:44:07.981Z,100.00
2022-08-31T00:46:56.463Z,100.00
2022-08-31T00:49:50.020Z,100.00
2022-08-31T00:52:41.056Z,100.00
2022-08-31T00:55:34.637Z,100.00
2022-08-31T00:58:23.618Z,100.00
2022-08-31T01:01:13.038Z,100.00
2022-08-31T01:04:01.599Z,100.00
2022-08-31T01:06:50.654Z,100.00
2022-08-31T01:09:52.657Z,100.00
2022-08-31T01:12:47.303Z,100.00
2022-08-31T01:15:37.191Z,100.00
2022-08-31T01:18:25.913Z,100.00
2022-08-31T01:21:24.442Z,100.00
2022-08-31T01:24:15.240Z,100.00
2022-08-31T01:27:07.698Z,100.00
2022-08-31T01:30:00.235Z,100.00
2022-08-31T01:32:48.803Z,100.00
2022-08-31T01:35:37.348Z,100.00
2022-08-31T01:38:26.203Z,100.00
2022-08-31T01:41:16.361Z,100.00
2022-08-31T01:44:04.866Z,100.00
2022-08-31T01:46:54.107Z,100.00
2022-08-31T01:49:42.675Z,100.00
2022-08-31T01:52:31.183Z,100.00
2022-08-31T01:55:19.884Z,100.00
2022-08-31T01:58:09.908Z,100.00
2022-08-31T02:00:58.542Z,100.00
2022-08-31T02:03:47.035Z,100.00
2022-08-31T02:06:36.501Z,100.00
2022-08-31T02:09:25.266Z,100.00
2022-08-31T02:12:13.809Z,100.00
2022-08-31T02:15:03.820Z,100.00
2022-08-31T02:17:52.910Z,100.00
2022-08-31T02:20:41.454Z,100.00
2022-08-31T02:23:29.920Z,100.00
2022-08-31T02:26:18.949Z,100.00
2022-08-31T02:29:08.190Z,100.00
2022-08-31T02:31:58.477Z,100.00
2022-08-31T02:34:46.998Z,100.00
2022-08-31T02:37:35.511Z,100.00
2022-08-31T02:40:24.141Z,100.00
2022-08-31T02:43:16.489Z,100.00
2022-08-31T02:46:13.190Z,100.00
2022-08-31T02:49:03.597Z,100.00
2022-08-31T02:51:52.077Z,100.00
2022-08-31T02:54:40.595Z,100.00
2022-08-31T02:57:29.160Z,100.00
2022-08-31T03:00:18.580Z,100.00
2022-08-31T03:03:07.531Z,100.00
2022-08-31T03:05:57.532Z,100.00
2022-08-31T03:08:46.601Z,100.00
2022-08-31T03:11:35.183Z,100.00
2022-08-31T03:14:23.753Z,100.00
2022-08-31T03:17:12.348Z,100.00
2022-08-31T03:20:02.798Z,100.00
2022-08-31T03:22:52.821Z,100.00
2022-08-31T03:25:41.335Z,100.00
2022-08-31T03:28:29.811Z,100.00
2022-08-31T03:31:18.394Z,100.00
2022-08-31T03:34:06.915Z,100.00
2022-08-31T03:36:55.440Z,100.00
2022-08-31T03:39:45.343Z,100.00
2022-08-31T03:42:33.901Z,100.00
2022-08-31T03:45:22.550Z,100.00
2022-08-31T03:48:13.113Z,100.00
2022-08-31T03:51:02.093Z,100.00
2022-08-31T03:53:50.585Z,100.00
2022-08-31T03:56:41.600Z,100.00
2022-08-31T03:59:30.125Z,100.00
2022-08-31T04:02:18.711Z,100.00
2022-08-31T04:05:08.692Z,100.00
2022-08-31T04:07:57.266Z,100.00
2022-08-31T04:10:47.819Z,100.00
2022-08-31T04:13:39.008Z,100.00
2022-08-31T04:16:27.890Z,100.00
2022-08-31T04:19:17.535Z,100.00
2022-08-31T04:22:06.046Z,100.00
2022-08-31T04:24:54.662Z,100.00
2022-08-31T04:27:43.151Z,100.00
2022-08-31T04:30:33.048Z,100.00
2022-08-31T04:33:21.609Z,100.00
2022-08-31T04:36:12.458Z,100.00
2022-08-31T04:39:02.755Z,100.00
2022-08-31T04:41:51.539Z,100.00
2022-08-31T04:44:40.011Z,100.00
2022-08-31T04:47:29.971Z,100.00
2022-08-31T04:50:18.665Z,100.00
2022-08-31T04:53:07.435Z,100.00
2022-08-31T04:55:55.930Z,100.00
2022-08-31T04:58:46.019Z,100.00
2022-08-31T05:01:42.826Z,100.00
2022-08-31T05:04:33.558Z,100.00
2022-08-31T05:07:22.148Z,100.00
2022-08-31T05:10:11.269Z,100.00
2022-08-31T05:12:59.793Z,100.00
2022-08-31T05:15:50.559Z,100.00
2022-08-31T05:18:45.387Z,100.00
2022-08-31T05:21:36.868Z,100.00
2022-08-31T05:24:25.380Z,100.00
2022-08-31T05:27:14.102Z,100.00
2022-08-31T05:30:02.908Z,100.00
2022-08-31T05:32:51.466Z,100.00
2022-08-31T05:35:40.808Z,100.00
2022-08-31T05:38:30.717Z,100.00
2022-08-31T05:41:19.218Z,100.00
2022-08-31T05:44:08.480Z,100.00
2022-08-31T05:47:03.662Z,100.00
2022-08-31T05:49:52.770Z,100.00
2022-08-31T05:52:41.337Z,100.00
2022-08-31T05:55:31.288Z,100.00
2022-08-31T05:58:19.955Z,100.00
2022-08-31T06:01:14.811Z,100.00
2022-08-31T06:04:04.142Z,100.00
2022-08-31T06:06:52.992Z,100.00
2022-08-31T06:09:41.893Z,100.00
2022-08-31T06:12:34.270Z,100.00
2022-08-31T06:15:22.763Z,100.00
2022-08-31T06:18:11.731Z,100.00
2022-08-31T06:21:05.002Z,100.00
2022-08-31T06:23:54.918Z,100.00
2022-08-31T06:26:43.506Z,100.00
2022-08-31T06:29:33.860Z,100.00
2022-08-31T06:32:23.645Z,100.00
2022-08-31T06:35:12.200Z,100.00
2022-08-31T06:38:00.748Z,100.00
2022-08-31T06:40:49.974Z,100.00
2022-08-31T06:43:38.577Z,100.00
2022-08-31T06:46:29.657Z,100.00
2022-08-31T06:49:19.184Z,100.00
2022-08-31T06:52:07.870Z,100.00
2022-08-31T06:54:56.343Z,100.00
2022-08-31T06:57:45.815Z,100.00
2022-08-31T07:00:34.353Z,100.00
2022-08-31T07:03:24.259Z,100.00
2022-08-31T07:06:15.253Z,100.00
2022-08-31T07:09:06.354Z,100.00
2022-08-31T07:11:55.108Z,100.00
2022-08-31T07:14:50.183Z,100.00
2022-08-31T07:17:43.508Z,100.00
2022-08-31T07:20:33.390Z,100.00
2022-08-31T07:23:21.915Z,100.00
2022-08-31T07:26:12.732Z,100.00
2022-08-31T07:29:05.027Z,100.00
2022-08-31T07:31:56.186Z,100.00
2022-08-31T07:34:44.980Z,100.00
2022-08-31T07:37:52.277Z,100.00
2022-08-31T07:40:58.280Z,100.00
2022-08-31T07:43:46.822Z,100.00
2022-08-31T07:46:36.245Z,100.00
2022-08-31T07:49:26.259Z,100.00
2022-08-31T07:52:18.852Z,100.00
2022-08-31T07:55:11.854Z,100.00
2022-08-31T07:58:00.444Z,100.00
2022-08-31T08:00:50.148Z,100.00
2022-08-31T08:03:44.084Z,100.00
2022-08-31T08:06:34.201Z,100.00
2022-08-31T08:09:24.386Z,100.00
2022-08-31T08:12:15.212Z,100.00
2022-08-31T08:15:05.427Z,100.00
2022-08-31T08:17:54.010Z,100.00
2022-08-31T08:20:42.590Z,100.00
2022-08-31T08:23:31.358Z,100.00
2022-08-31T08:26:21.778Z,100.00
2022-08-31T08:29:12.261Z,100.00
2022-08-31T08:32:00.928Z,100.00
2022-08-31T08:34:49.650Z,100.00
2022-08-31T08:37:57.319Z,100.00
2022-08-31T08:40:47.340Z,100.00
2022-08-31T08:43:37.929Z,100.00
2022-08-31T08:46:35.502Z,100.00
2022-08-31T08:49:31.253Z,100.00
2022-08-31T08:52:24.975Z,100.00
2022-08-31T08:55:16.814Z,100.00
2022-08-31T08:58:07.860Z,100.00
2022-08-31T09:00:57.218Z,100.00
2022-08-31T09:03:53.366Z,100.00
2022-08-31T09:06:48.289Z,100.00
2022-08-31T09:09:43.481Z,100.00
2022-08-31T09:12:38.427Z,100.00
2022-08-31T09:15:48.408Z,100.00
2022-08-31T09:18:45.786Z,100.00
2022-08-31T09:21:37.242Z,100.00
2022-08-31T09:24:28.052Z,100.00
2022-08-31T09:27:19.293Z,100.00
2022-08-31T09:30:09.081Z,100.00
2022-08-31T09:32:58.662Z,100.00
2022-08-31T09:35:48.118Z,100.00
2022-08-31T09:38:39.469Z,100.00
2022-08-31T09:41:33.269Z,100.00
2022-08-31T09:44:26.755Z,100.00
2022-08-31T09:47:44.529Z,100.00
2022-08-31T09:50:37.015Z,100.00
2022-08-31T09:53:44.704Z,100.00
2022-08-31T09:56:54.994Z,100.00
2022-08-31T09:59:48.069Z,100.00
2022-08-31T10:02:37.910Z,100.00
2022-08-31T10:05:32.925Z,100.00
2022-08-31T10:08:41.985Z,100.00
2022-08-31T10:11:32.661Z,100.00
2022-08-31T10:14:30.909Z,100.00
2022-08-31T10:17:26.076Z,100.00
2022-08-31T10:20:19.587Z,100.00
2022-08-31T10:23:17.048Z,100.00
2022-08-31T10:26:11.710Z,100.00
2022-08-31T10:29:06.166Z,100.00
2022-08-31T10:31:58.728Z,100.00
2022-08-31T10:35:03.571Z,100.00
2022-08-31T10:37:59.916Z,100.00
2022-08-31T10:40:52.467Z,100.00
2022-08-31T10:43:49.030Z,100.00
2022-08-31T10:46:37.745Z,100.00
2022-08-31T10:49:28.047Z,100.00
2022-08-31T10:52:18.339Z,100.00
2022-08-31T10:55:13.342Z,100.00
2022-08-31T10:58:08.478Z,100.00
2022-08-31T11:01:01.594Z,100.00
2022-08-31T11:04:04.794Z,100.00
2022-08-31T11:06:59.464Z,100.00
2022-08-31T11:09:54.946Z,100.00
2022-08-31T11:12:46.264Z,100.00
2022-08-31T11:15:58.068Z,100.00
2022-08-31T11:18:59.087Z,100.00
2022-08-31T11:22:06.619Z,100.00
2022-08-31T11:25:25.238Z,100.00
2022-08-31T11:28:22.429Z,100.00
2022-08-31T11:31:23.700Z,100.00
2022-08-31T11:34:17.190Z,100.00
2022-08-31T11:37:09.087Z,100.00
2022-08-31T11:39:57.694Z,100.00
2022-08-31T11:43:01.124Z,100.00
2022-08-31T11:45:51.114Z,100.00
2022-08-31T11:49:00.203Z,100.00
2022-08-31T11:51:48.782Z,100.00
2022-08-31T11:55:06.668Z,100.00
2022-08-31T11:58:23.436Z,100.00
2022-08-31T12:01:34.151Z,100.00
2022-08-31T12:04:57.467Z,100.00
2022-08-31T12:07:48.449Z,100.00
2022-08-31T12:10:47.042Z,100.00
2022-08-31T12:13:41.144Z,100.00
2022-08-31T12:16:39.318Z,100.00
2022-08-31T12:20:02.688Z,100.00
2022-08-31T12:23:35.111Z,100.00
2022-08-31T12:26:49.424Z,100.00
2022-08-31T12:29:39.229Z,100.00
2022-08-31T12:32:29.996Z,100.00
2022-08-31T12:35:22.644Z,100.00
2022-08-31T12:38:19.548Z,100.00
2022-08-31T12:41:10.981Z,100.00
2022-08-31T12:44:03.957Z,100.00
2022-08-31T12:47:03.099Z,100.00
2022-08-31T12:50:03.220Z,100.00
2022-08-31T12:53:34.329Z,100.00
2022-08-31T12:56:27.690Z,100.00
2022-08-31T12:59:45.708Z,100.00
2022-08-31T13:02:41.984Z,100.00
2022-08-31T13:05:33.709Z,100.00
2022-08-31T13:08:26.178Z,100.00
2022-08-31T13:11:26.128Z,100.00
2022-08-31T13:14:27.135Z,100.00
2022-08-31T13:17:18.021Z,100.00
2022-08-31T13:20:08.243Z,100.00
2022-08-31T13:22:58.765Z,100.00
2022-08-31T13:25:51.769Z,100.00
2022-08-31T13:28:41.167Z,100.00
2022-08-31T13:31:33.729Z,100.00
2022-08-31T13:34:23.527Z,100.00
2022-08-31T13:37:15.877Z,100.00
2022-08-31T13:40:08.125Z,100.00
2022-08-31T13:42:57.486Z,100.00
2022-08-31T13:45:58.254Z,100.00
2022-08-31T13:48:53.916Z,100.00
2022-08-31T13:51:46.377Z,100.00
2022-08-31T13:54:36.897Z,100.00
2022-08-31T13:57:28.374Z,100.00
2022-08-31T14:00:28.312Z,100.00
2022-08-31T14:03:33.848Z,100.00
2022-08-31T14:06:26.192Z,100.00
2022-08-31T14:09:17.427Z,98.07
2022-08-31T14:12:06.475Z,97.75
2022-08-31T14:14:59.447Z,97.05
2022-08-31T14:21:21.587Z,100.00
2022-08-31T14:24:13.267Z,97.75
2022-08-31T14:27:01.854Z,96.26
2022-08-31T14:29:52.149Z,97.17
2022-08-31T14:32:43.918Z,96.91
2022-08-31T14:35:32.735Z,98.90
2022-08-31T14:38:21.391Z,97.08
2022-08-31T14:41:13.603Z,97.44
2022-08-31T14:44:07.066Z,97.17
2022-08-31T14:46:55.656Z,96.10
2022-08-31T14:49:45.453Z,94.78
2022-08-31T14:52:35.119Z,94.21
2022-08-31T14:55:25.737Z,94.46
2022-08-31T14:58:17.333Z,92.52
2022-08-31T15:01:06.305Z,88.29
2022-08-31T15:03:55.224Z,89.19
2022-08-31T15:06:44.168Z,90.23
2022-08-31T15:09:32.885Z,92.50
2022-08-31T15:12:21.896Z,94.62
2022-08-31T15:15:15.084Z,93.34
2022-08-31T15:18:04.770Z,91.69
2022-08-31T15:20:53.319Z,91.76
2022-08-31T15:23:43.428Z,91.16
2022-08-31T15:26:31.970Z,93.51
2022-08-31T15:29:24.764Z,93.59
2022-08-31T15:32:16.548Z,97.67
2022-08-31T15:35:05.740Z,98.57
2022-08-31T15:37:58.742Z,95.43
2022-08-31T15:40:47.409Z,95.49
2022-08-31T15:43:36.304Z,97.99
2022-08-31T15:46:38.894Z,97.89
2022-08-31T15:49:28.886Z,96.24
2022-08-31T15:52:18.958Z,97.59
2022-08-31T15:55:08.038Z,96.05
2022-08-31T15:57:58.838Z,96.00
2022-08-31T16:00:49.809Z,97.26
2022-08-31T16:03:41.992Z,99.62
2022-08-31T16:06:32.743Z,100.00
2022-08-31T16:09:21.580Z,99.61
2022-08-31T16:12:12.402Z,99.76
2022-08-31T16:15:01.001Z,100.00
2022-08-31T16:17:49.755Z,100.00
2022-08-31T16:20:39.227Z,100.00
2022-08-31T16:23:32.724Z,100.00
2022-08-31T16:26:21.729Z,100.00
2022-08-31T16:29:14.139Z,100.00
2022-08-31T16:32:02.998Z,100.00
2022-08-31T16:34:52.726Z,100.00
2022-08-31T16:37:41.508Z,100.00
2022-08-31T16:40:32.045Z,100.00
2022-08-31T16:43:20.746Z,100.00
2022-08-31T16:46:37.437Z,100.00
2022-08-31T16:49:36.400Z,100.00
2022-08-31T16:52:27.150Z,100.00
2022-08-31T16:55:15.953Z,100.00
2022-08-31T16:58:05.890Z,100.00
2022-08-31T17:00:55.436Z,100.00
2022-08-31T17:03:46.687Z,99.11
2022-08-31T17:06:37.644Z,100.00
2022-08-31T17:09:28.207Z,100.00
2022-08-31T17:12:19.230Z,100.00
2022-08-31T17:15:13.877Z,100.00
2022-08-31T17:18:02.484Z,100.00
2022-08-31T17:20:53.273Z,100.00
2022-08-31T17:23:41.912Z,100.00
2022-08-31T17:26:33.627Z,100.00
2022-08-31T17:29:23.514Z,100.00
2022-08-31T17:32:16.265Z,100.00
2022-08-31T17:35:05.714Z,100.00
2022-08-31T17:37:58.359Z,100.00
2022-08-31T17:40:47.975Z,100.00
2022-08-31T17:43:38.827Z,100.00
2022-08-31T17:46:28.128Z,100.00
2022-08-31T17:49:19.891Z,100.00
2022-08-31T17:52:08.885Z,100.00
2022-08-31T17:55:00.298Z,100.00
2022-08-31T17:57:48.902Z,100.00
2022-08-31T18:00:37.550Z,100.00
2022-08-31T18:03:26.370Z,100.00
2022-08-31T18:06:19.410Z,100.00
2022-08-31T18:09:07.968Z,100.00
2022-08-31T18:11:59.452Z,100.00
2022-08-31T18:14:47.995Z,100.00
2022-08-31T18:17:36.661Z,100.00
2022-08-31T18:20:25.269Z,100.00
2022-08-31T18:23:16.429Z,100.00
2022-08-31T18:26:14.285Z,100.00
2022-08-31T18:29:04.052Z,100.00
2022-08-31T18:31:53.991Z,100.00
2022-08-31T18:34:44.850Z,100.00
2022-08-31T18:37:33.556Z,100.00
2022-08-31T18:40:41.484Z,100.00
2022-08-31T18:43:47.818Z,100.00
2022-08-31T18:46:36.571Z,100.00
2022-08-31T18:49:25.384Z,100.00
2022-08-31T18:52:19.177Z,100.00
2022-08-31T18:55:08.554Z,100.00
2022-08-31T18:57:58.408Z,100.00
2022-08-31T19:00:57.086Z,100.00
2022-08-31T19:03:46.520Z,100.00
2022-08-31T19:06:35.841Z,100.00
2022-08-31T19:09:24.416Z,100.00
2022-08-31T19:12:19.521Z,100.00
2022-08-31T19:15:10.719Z,100.00
2022-08-31T19:18:00.502Z,100.00
2022-08-31T19:20:49.082Z,100.00
2022-08-31T19:23:37.880Z,100.00
2022-08-31T19:26:29.406Z,100.00
2022-08-31T19:29:22.821Z,100.00
2022-08-31T19:32:13.823Z,100.00
2022-08-31T19:35:02.537Z,100.00
2022-08-31T19:37:51.908Z,100.00
2022-08-31T19:40:40.841Z,100.00
2022-08-31T19:43:53.589Z,100.00
2022-08-31T19:46:41.186Z,100.00
2022-08-31T19:49:32.459Z,100.00
2022-08-31T19:52:21.192Z,100.00
2022-08-31T19:55:11.122Z,100.00
2022-08-31T19:57:59.721Z,100.00
2022-08-31T20:00:49.921Z,100.00
2022-08-31T20:03:38.831Z,100.00
2022-08-31T20:06:29.165Z,100.00
2022-08-31T20:09:18.910Z,100.00
2022-08-31T20:12:08.203Z,100.00
2022-08-31T20:14:57.083Z,100.00
2022-08-31T20:17:48.084Z,100.00
2022-08-31T20:20:45.277Z,100.00
2022-08-31T20:23:35.701Z,100.00
2022-08-31T20:26:26.117Z,100.00
2022-08-31T20:29:23.150Z,100.00
2022-08-31T20:32:12.053Z,100.00
2022-08-31T20:35:02.023Z,100.00
2022-08-31T20:37:51.204Z,100.00
2022-08-31T20:40:41.469Z,100.00
2022-08-31T20:43:35.273Z,100.00
2022-08-31T20:46:41.399Z,100.00
2022-08-31T20:49:31.537Z,100.00
2022-08-31T20:52:21.382Z,100.00
2022-08-31T20:55:12.396Z,100.00
2022-08-31T20:58:02.353Z,100.00
2022-08-31T21:00:51.101Z,100.00
2022-08-31T21:03:39.718Z,100.00
2022-08-31T21:06:28.316Z,100.00
2022-08-31T21:09:17.029Z,100.00
2022-08-31T21:12:07.868Z,100.00
2022-08-31T21:14:57.808Z,100.00
2022-08-31T21:17:48.150Z,100.00
2022-08-31T21:20:37.828Z,100.00
2022-08-31T21:23:27.045Z,100.00
2022-08-31T21:26:19.573Z,100.00
2022-08-31T21:29:10.307Z,100.00
2022-08-31T21:32:03.874Z,100.00
2022-08-31T21:34:56.433Z,100.00
2022-08-31T21:37:44.971Z,100.00
2022-08-31T21:40:34.847Z,100.00
2022-08-31T21:43:23.487Z,100.00
2022-08-31T21:46:14.174Z,100.00
2022-08-31T21:49:06.754Z,100.00
2022-08-31T21:51:57.718Z,100.00
2022-08-31T21:54:47.979Z,100.00
2022-08-31T21:57:37.091Z,100.00
2022-08-31T22:00:30.976Z,100.00
2022-08-31T22:03:22.357Z,100.00
2022-08-31T22:06:14.137Z,100.00
2022-08-31T22:09:06.480Z,100.00
2022-08-31T22:11:56.493Z,100.00
2022-08-31T22:14:45.194Z,100.00
2022-08-31T22:17:59.282Z,100.00
2022-08-31T22:20:45.484Z,100.00
2022-08-31T22:23:36.603Z,100.00
2022-08-31T22:26:27.157Z,100.00
2022-08-31T22:29:21.736Z,100.00
2022-08-31T22:32:12.401Z,100.00
2022-08-31T22:35:00.991Z,100.00
2022-08-31T22:37:49.577Z,100.00
2022-08-31T22:40:39.828Z,100.00
2022-08-31T22:43:29.693Z,100.00
2022-08-31T22:46:20.877Z,100.00
2022-08-31T22:49:09.814Z,100.00
2022-08-31T22:51:58.411Z,100.00
2022-08-31T22:54:46.983Z,100.00
2022-08-31T22:57:37.753Z,100.00
2022-08-31T23:00:26.312Z,100.00
2022-08-31T23:03:15.082Z,100.00
2022-08-31T23:06:03.600Z,100.00
2022-08-31T23:08:53.037Z,100.00
2022-08-31T23:11:41.656Z,100.00
2022-08-31T23:14:32.568Z,100.00
2022-08-31T23:17:21.066Z,100.00
2022-08-31T23:20:10.998Z,100.00
2022-08-31T23:23:00.963Z,100.00
2022-08-31T23:25:50.307Z,100.00
2022-08-31T23:28:39.856Z,100.00
2022-08-31T23:31:30.234Z,100.00
2022-08-31T23:34:19.706Z,100.00
2022-08-31T23:37:09.878Z,100.00
2022-08-31T23:39:59.752Z,100.00
2022-08-31T23:42:48.659Z,100.00
2022-08-31T23:45:37.876Z,100.00
2022-08-31T23:48:27.766Z,100.00
2022-08-31T23:51:16.361Z,100.00
2022-08-31T23:54:07.677Z,100.00
2022-08-31T23:56:57.712Z,100.00
2022-08-31T23:59:51.011Z,100.00
